sensor_id;sensor_type;location;lat;lon;timestamp;P1;durP1;ratioP1;P2;durP2;ratioP2
64186;SDS011;50491;39.484;-8.540;2023-06-10T00:00:55;6.75;;;2.72;;
64186;SDS011;50491;39.484;-8.540;2023-06-10T00:02:56;9.25;;;3.20;;
64186;SDS011;50491;39.484;-8.540;2023-06-10T00:04:57;7.43;;;3.10;;
64186;SDS011;50491;39.484;-8.540;2023-06-10T00:06:58;11.43;;;2.90;;
64186;SDS011;50491;39.484;-8.540;2023-06-10T00:08:59;11.90;;;2.90;;
64186;SDS011;50491;39.484;-8.540;2023-06-10T00:11:01;4.53;;;2.40;;
64186;SDS011;50491;39.484;-8.540;2023-06-10T00:13:20;8.55;;;2.83;;
64186;SDS011;50491;39.484;-8.540;2023-06-10T00:15:20;7.20;;;2.80;;
64186;SDS011;50491;39.484;-8.540;2023-06-10T00:17:21;10.93;;;2.80;;
64186;SDS011;50491;39.484;-8.540;2023-06-10T00:19:23;8.90;;;2.58;;
64186;SDS011;50491;39.484;-8.540;2023-06-10T00:21:48;9.40;;;2.90;;
64186;SDS011;50491;39.484;-8.540;2023-06-10T00:24:10;10.07;;;2.80;;
64186;SDS011;50491;39.484;-8.540;2023-06-10T00:26:31;8.35;;;3.80;;
64186;SDS011;50491;39.484;-8.540;2023-06-10T00:28:51;17.00;;;3.10;;
64186;SDS011;50491;39.484;-8.540;2023-06-10T00:31:11;9.68;;;3.13;;
64186;SDS011;50491;39.484;-8.540;2023-06-10T00:33:30;11.27;;;3.35;;
64186;SDS011;50491;39.484;-8.540;2023-06-10T00:35:49;10.23;;;3.58;;
64186;SDS011;50491;39.484;-8.540;2023-06-10T00:37:51;8.20;;;2.85;;
64186;SDS011;50491;39.484;-8.540;2023-06-10T00:39:51;6.60;;;2.47;;
64186;SDS011;50491;39.484;-8.540;2023-06-10T00:41:52;9.48;;;2.60;;
64186;SDS011;50491;39.484;-8.540;2023-06-10T00:44:11;9.68;;;2.60;;
64186;SDS011;50491;39.484;-8.540;2023-06-10T00:46:12;5.63;;;2.85;;
64186;SDS011;50491;39.484;-8.540;2023-06-10T00:48:13;8.00;;;3.55;;
64186;SDS011;50491;39.484;-8.540;2023-06-10T00:50:14;8.57;;;2.85;;
64186;SDS011;50491;39.484;-8.540;2023-06-10T00:52:33;19.95;;;4.15;;
64186;SDS011;50491;39.484;-8.540;2023-06-10T00:54:37;11.18;;;2.90;;
64186;SDS011;50491;39.484;-8.540;2023-06-10T00:56:57;7.00;;;2.72;;
64186;SDS011;50491;39.484;-8.540;2023-06-10T00:59:23;6.20;;;3.13;;
64186;SDS011;50491;39.484;-8.540;2023-06-10T01:01:25;4.63;;;2.65;;
64186;SDS011;50491;39.484;-8.540;2023-06-10T01:03:45;9.50;;;4.30;;
64186;SDS011;50491;39.484;-8.540;2023-06-10T01:11:35;6.18;;;2.70;;
64186;SDS011;50491;39.484;-8.540;2023-06-10T01:13:55;14.85;;;4.28;;
64186;SDS011;50491;39.484;-8.540;2023-06-10T01:18:41;11.80;;;3.08;;
64186;SDS011;50491;39.484;-8.540;2023-06-10T01:20:42;8.75;;;3.15;;
64186;SDS011;50491;39.484;-8.540;2023-06-10T01:22:46;6.75;;;2.90;;
64186;SDS011;50491;39.484;-8.540;2023-06-10T01:24:48;9.30;;;3.35;;
64186;SDS011;50491;39.484;-8.540;2023-06-10T01:26:50;12.73;;;2.83;;
64186;SDS011;50491;39.484;-8.540;2023-06-10T01:29:01;7.00;;;3.15;;
64186;SDS011;50491;39.484;-8.540;2023-06-10T01:33:34;10.60;;;2.80;;
64186;SDS011;50491;39.484;-8.540;2023-06-10T01:35:37;8.20;;;3.10;;
64186;SDS011;50491;39.484;-8.540;2023-06-10T01:37:39;12.05;;;2.88;;
64186;SDS011;50491;39.484;-8.540;2023-06-10T01:39:40;5.38;;;2.58;;
64186;SDS011;50491;39.484;-8.540;2023-06-10T01:42:00;6.68;;;3.13;;
64186;SDS011;50491;39.484;-8.540;2023-06-10T01:44:28;8.75;;;3.08;;
64186;SDS011;50491;39.484;-8.540;2023-06-10T01:46:28;14.50;;;3.92;;
64186;SDS011;50491;39.484;-8.540;2023-06-10T01:48:29;4.22;;;2.45;;
64186;SDS011;50491;39.484;-8.540;2023-06-10T01:50:55;11.80;;;3.30;;
64186;SDS011;50491;39.484;-8.540;2023-06-10T01:52:57;6.18;;;3.03;;
64186;SDS011;50491;39.484;-8.540;2023-06-10T01:54:58;5.07;;;2.78;;
64186;SDS011;50491;39.484;-8.540;2023-06-10T01:57:05;7.60;;;3.05;;
64186;SDS011;50491;39.484;-8.540;2023-06-10T01:59:06;12.93;;;3.88;;
64186;SDS011;50491;39.484;-8.540;2023-06-10T02:01:32;5.32;;;2.90;;
64186;SDS011;50491;39.484;-8.540;2023-06-10T02:03:32;7.57;;;2.90;;
64186;SDS011;50491;39.484;-8.540;2023-06-10T02:05:33;13.30;;;3.60;;
64186;SDS011;50491;39.484;-8.540;2023-06-10T02:07:34;14.32;;;3.45;;
64186;SDS011;50491;39.484;-8.540;2023-06-10T02:09:54;6.63;;;3.42;;
64186;SDS011;50491;39.484;-8.540;2023-06-10T02:11:55;9.43;;;3.15;;
64186;SDS011;50491;39.484;-8.540;2023-06-10T02:13:56;9.00;;;3.42;;
64186;SDS011;50491;39.484;-8.540;2023-06-10T02:18:41;9.13;;;3.55;;
64186;SDS011;50491;39.484;-8.540;2023-06-10T02:23:21;11.88;;;3.13;;
64186;SDS011;50491;39.484;-8.540;2023-06-10T02:25:21;9.30;;;3.00;;
64186;SDS011;50491;39.484;-8.540;2023-06-10T02:27:41;10.10;;;3.58;;
64186;SDS011;50491;39.484;-8.540;2023-06-10T02:29:48;11.65;;;3.15;;
64186;SDS011;50491;39.484;-8.540;2023-06-10T02:32:08;10.02;;;3.00;;
64186;SDS011;50491;39.484;-8.540;2023-06-10T02:34:27;8.30;;;3.05;;
64186;SDS011;50491;39.484;-8.540;2023-06-10T02:36:29;8.43;;;3.20;;
64186;SDS011;50491;39.484;-8.540;2023-06-10T02:38:30;7.03;;;2.80;;
64186;SDS011;50491;39.484;-8.540;2023-06-10T02:46:13;7.35;;;3.13;;
64186;SDS011;50491;39.484;-8.540;2023-06-10T02:48:38;6.95;;;3.38;;
64186;SDS011;50491;39.484;-8.540;2023-06-10T02:50:41;8.55;;;3.50;;
64186;SDS011;50491;39.484;-8.540;2023-06-10T02:52:54;23.77;;;4.55;;
64186;SDS011;50491;39.484;-8.540;2023-06-10T02:54:55;9.68;;;2.88;;
64186;SDS011;50491;39.484;-8.540;2023-06-10T02:57:14;7.47;;;3.25;;
64186;SDS011;50491;39.484;-8.540;2023-06-10T02:59:34;7.80;;;2.75;;
64186;SDS011;50491;39.484;-8.540;2023-06-10T03:01:42;7.75;;;3.20;;
64186;SDS011;50491;39.484;-8.540;2023-06-10T03:03:44;10.68;;;3.17;;
64186;SDS011;50491;39.484;-8.540;2023-06-10T03:06:05;7.93;;;3.55;;
64186;SDS011;50491;39.484;-8.540;2023-06-10T03:08:24;10.15;;;3.38;;
64186;SDS011;50491;39.484;-8.540;2023-06-10T03:10:26;9.55;;;3.42;;
64186;SDS011;50491;39.484;-8.540;2023-06-10T03:12:45;10.23;;;3.67;;
64186;SDS011;50491;39.484;-8.540;2023-06-10T03:14:47;8.00;;;3.40;;
64186;SDS011;50491;39.484;-8.540;2023-06-10T03:17:06;8.13;;;3.22;;
64186;SDS011;50491;39.484;-8.540;2023-06-10T03:19:26;7.60;;;3.97;;
64186;SDS011;50491;39.484;-8.540;2023-06-10T03:21:45;5.85;;;3.13;;
64186;SDS011;50491;39.484;-8.540;2023-06-10T03:23:50;10.48;;;3.50;;
64186;SDS011;50491;39.484;-8.540;2023-06-10T03:25:55;8.97;;;2.90;;
64186;SDS011;50491;39.484;-8.540;2023-06-10T03:28:14;9.35;;;3.58;;
64186;SDS011;50491;39.484;-8.540;2023-06-10T03:30:16;9.88;;;3.70;;
64186;SDS011;50491;39.484;-8.540;2023-06-10T03:32:19;10.63;;;3.40;;
64186;SDS011;50491;39.484;-8.540;2023-06-10T03:34:20;10.20;;;3.63;;
64186;SDS011;50491;39.484;-8.540;2023-06-10T03:36:40;7.97;;;3.00;;
64186;SDS011;50491;39.484;-8.540;2023-06-10T03:39:01;6.68;;;3.35;;
64186;SDS011;50491;39.484;-8.540;2023-06-10T03:41:21;5.60;;;3.13;;
64186;SDS011;50491;39.484;-8.540;2023-06-10T03:43:23;9.73;;;3.70;;
64186;SDS011;50491;39.484;-8.540;2023-06-10T03:45:43;9.35;;;3.67;;
64186;SDS011;50491;39.484;-8.540;2023-06-10T03:48:03;6.80;;;3.35;;
64186;SDS011;50491;39.484;-8.540;2023-06-10T03:50:23;13.52;;;3.45;;
64186;SDS011;50491;39.484;-8.540;2023-06-10T03:52:43;12.13;;;4.03;;
64186;SDS011;50491;39.484;-8.540;2023-06-10T03:55:04;12.15;;;3.45;;
64186;SDS011;50491;39.484;-8.540;2023-06-10T03:57:23;9.02;;;2.80;;
64186;SDS011;50491;39.484;-8.540;2023-06-10T03:59:43;5.90;;;2.65;;
64186;SDS011;50491;39.484;-8.540;2023-06-10T04:01:43;15.90;;;3.97;;
64186;SDS011;50491;39.484;-8.540;2023-06-10T04:03:45;10.85;;;3.78;;
64186;SDS011;50491;39.484;-8.540;2023-06-10T04:05:45;8.18;;;3.17;;
64186;SDS011;50491;39.484;-8.540;2023-06-10T04:08:05;7.80;;;2.67;;
64186;SDS011;50491;39.484;-8.540;2023-06-10T04:13:29;4.85;;;2.90;;
64186;SDS011;50491;39.484;-8.540;2023-06-10T04:15:32;10.60;;;3.00;;
64186;SDS011;50491;39.484;-8.540;2023-06-10T04:17:37;10.02;;;3.22;;
64186;SDS011;50491;39.484;-8.540;2023-06-10T04:22:04;16.17;;;3.85;;
64186;SDS011;50491;39.484;-8.540;2023-06-10T04:24:23;13.65;;;3.45;;
64186;SDS011;50491;39.484;-8.540;2023-06-10T04:26:50;6.35;;;3.25;;
64186;SDS011;50491;39.484;-8.540;2023-06-10T04:28:56;11.18;;;3.70;;
64186;SDS011;50491;39.484;-8.540;2023-06-10T04:31:15;7.68;;;3.65;;
64186;SDS011;50491;39.484;-8.540;2023-06-10T04:33:34;9.75;;;3.88;;
64186;SDS011;50491;39.484;-8.540;2023-06-10T04:35:37;9.13;;;3.33;;
64186;SDS011;50491;39.484;-8.540;2023-06-10T04:37:40;17.67;;;3.70;;
64186;SDS011;50491;39.484;-8.540;2023-06-10T04:47:55;6.68;;;4.05;;
64186;SDS011;50491;39.484;-8.540;2023-06-10T04:49:56;8.80;;;3.17;;
64186;SDS011;50491;39.484;-8.540;2023-06-10T04:51:57;12.88;;;3.75;;
64186;SDS011;50491;39.484;-8.540;2023-06-10T04:53:58;10.27;;;3.42;;
64186;SDS011;50491;39.484;-8.540;2023-06-10T04:56:21;7.85;;;3.53;;
64186;SDS011;50491;39.484;-8.540;2023-06-10T04:58:22;11.13;;;3.78;;
64186;SDS011;50491;39.484;-8.540;2023-06-10T05:00:22;13.07;;;4.85;;
64186;SDS011;50491;39.484;-8.540;2023-06-10T05:02:41;16.65;;;4.47;;
64186;SDS011;50491;39.484;-8.540;2023-06-10T05:04:42;8.70;;;3.35;;
64186;SDS011;50491;39.484;-8.540;2023-06-10T05:06:43;13.85;;;3.80;;
64186;SDS011;50491;39.484;-8.540;2023-06-10T05:09:02;7.25;;;3.97;;
64186;SDS011;50491;39.484;-8.540;2023-06-10T05:11:21;6.88;;;3.65;;
64186;SDS011;50491;39.484;-8.540;2023-06-10T05:13:41;6.10;;;3.97;;
64186;SDS011;50491;39.484;-8.540;2023-06-10T05:15:42;11.25;;;3.92;;
64186;SDS011;50491;39.484;-8.540;2023-06-10T05:18:03;11.73;;;3.97;;
64186;SDS011;50491;39.484;-8.540;2023-06-10T05:20:04;7.65;;;3.83;;
64186;SDS011;50491;39.484;-8.540;2023-06-10T05:22:23;8.73;;;3.53;;
64186;SDS011;50491;39.484;-8.540;2023-06-10T05:24:50;10.57;;;3.60;;
64186;SDS011;50491;39.484;-8.540;2023-06-10T05:26:56;11.00;;;3.75;;
64186;SDS011;50491;39.484;-8.540;2023-06-10T05:29:21;9.55;;;3.92;;
64186;SDS011;50491;39.484;-8.540;2023-06-10T05:31:41;8.40;;;3.58;;
64186;SDS011;50491;39.484;-8.540;2023-06-10T05:34:00;13.85;;;4.00;;
64186;SDS011;50491;39.484;-8.540;2023-06-10T05:36:19;6.05;;;3.13;;
64186;SDS011;50491;39.484;-8.540;2023-06-10T05:38:20;11.93;;;3.60;;
64186;SDS011;50491;39.484;-8.540;2023-06-10T05:40:20;10.95;;;3.00;;
64186;SDS011;50491;39.484;-8.540;2023-06-10T05:42:40;11.85;;;4.13;;
64186;SDS011;50491;39.484;-8.540;2023-06-10T05:44:40;7.10;;;2.88;;
64186;SDS011;50491;39.484;-8.540;2023-06-10T05:46:41;7.07;;;3.13;;
64186;SDS011;50491;39.484;-8.540;2023-06-10T05:49:00;10.57;;;4.03;;
64186;SDS011;50491;39.484;-8.540;2023-06-10T05:51:19;6.72;;;3.50;;
64186;SDS011;50491;39.484;-8.540;2023-06-10T05:53:38;8.65;;;3.38;;
64186;SDS011;50491;39.484;-8.540;2023-06-10T05:55:38;9.18;;;2.78;;
64186;SDS011;50491;39.484;-8.540;2023-06-10T06:00:17;8.10;;;3.28;;
64186;SDS011;50491;39.484;-8.540;2023-06-10T06:02:36;6.15;;;2.70;;
64186;SDS011;50491;39.484;-8.540;2023-06-10T06:04:55;9.95;;;2.83;;
64186;SDS011;50491;39.484;-8.540;2023-06-10T06:07:14;5.15;;;2.92;;
64186;SDS011;50491;39.484;-8.540;2023-06-10T06:16:32;7.75;;;3.72;;
64186;SDS011;50491;39.484;-8.540;2023-06-10T06:18:33;9.35;;;3.30;;
64186;SDS011;50491;39.484;-8.540;2023-06-10T06:20:34;7.95;;;3.00;;
64186;SDS011;50491;39.484;-8.540;2023-06-10T06:22:35;6.95;;;3.30;;
64186;SDS011;50491;39.484;-8.540;2023-06-10T06:29:59;6.38;;;3.05;;
64186;SDS011;50491;39.484;-8.540;2023-06-10T06:32:00;10.50;;;3.10;;
64186;SDS011;50491;39.484;-8.540;2023-06-10T06:34:19;10.30;;;4.75;;
64186;SDS011;50491;39.484;-8.540;2023-06-10T06:41:19;5.88;;;2.97;;
64186;SDS011;50491;39.484;-8.540;2023-06-10T06:46:17;7.53;;;3.30;;
64186;SDS011;50491;39.484;-8.540;2023-06-10T06:48:36;10.32;;;3.92;;
64186;SDS011;50491;39.484;-8.540;2023-06-10T06:53:33;11.07;;;4.22;;
64186;SDS011;50491;39.484;-8.540;2023-06-10T06:56:15;8.75;;;4.25;;
64186;SDS011;50491;39.484;-8.540;2023-06-10T06:58:15;11.77;;;4.60;;
64186;SDS011;50491;39.484;-8.540;2023-06-10T07:00:16;12.93;;;4.93;;
64186;SDS011;50491;39.484;-8.540;2023-06-10T07:02:36;9.45;;;4.40;;
64186;SDS011;50491;39.484;-8.540;2023-06-10T07:04:55;7.57;;;4.07;;
64186;SDS011;50491;39.484;-8.540;2023-06-10T07:07:14;6.88;;;3.10;;
64186;SDS011;50491;39.484;-8.540;2023-06-10T07:09:33;12.50;;;4.35;;
64186;SDS011;50491;39.484;-8.540;2023-06-10T07:11:45;15.55;;;4.93;;
64186;SDS011;50491;39.484;-8.540;2023-06-10T07:14:04;14.60;;;5.10;;
64186;SDS011;50491;39.484;-8.540;2023-06-10T07:16:05;7.95;;;3.38;;
64186;SDS011;50491;39.484;-8.540;2023-06-10T07:18:06;9.10;;;3.88;;
64186;SDS011;50491;39.484;-8.540;2023-06-10T07:20:25;9.63;;;3.92;;
64186;SDS011;50491;39.484;-8.540;2023-06-10T07:25:22;6.40;;;2.90;;
64186;SDS011;50491;39.484;-8.540;2023-06-10T07:30:00;8.25;;;4.10;;
64186;SDS011;50491;39.484;-8.540;2023-06-10T07:32:02;15.88;;;4.18;;
64186;SDS011;50491;39.484;-8.540;2023-06-10T07:34:03;8.48;;;4.03;;
64186;SDS011;50491;39.484;-8.540;2023-06-10T07:36:04;7.47;;;4.07;;
64186;SDS011;50491;39.484;-8.540;2023-06-10T07:38:08;11.45;;;4.13;;
64186;SDS011;50491;39.484;-8.540;2023-06-10T07:45:59;14.02;;;4.00;;
64186;SDS011;50491;39.484;-8.540;2023-06-10T07:48:19;6.43;;;2.95;;
64186;SDS011;50491;39.484;-8.540;2023-06-10T07:50:38;9.85;;;4.30;;
64186;SDS011;50491;39.484;-8.540;2023-06-10T07:52:39;8.32;;;3.88;;
64186;SDS011;50491;39.484;-8.540;2023-06-10T07:54:40;11.07;;;3.85;;
64186;SDS011;50491;39.484;-8.540;2023-06-10T07:56:59;6.95;;;3.90;;
64186;SDS011;50491;39.484;-8.540;2023-06-10T07:58:59;9.02;;;4.25;;
64186;SDS011;50491;39.484;-8.540;2023-06-10T08:01:00;12.40;;;3.20;;
64186;SDS011;50491;39.484;-8.540;2023-06-10T08:03:01;11.05;;;4.15;;
64186;SDS011;50491;39.484;-8.540;2023-06-10T08:05:01;9.15;;;3.58;;
64186;SDS011;50491;39.484;-8.540;2023-06-10T08:07:02;15.07;;;4.47;;
64186;SDS011;50491;39.484;-8.540;2023-06-10T08:09:03;7.60;;;3.50;;
64186;SDS011;50491;39.484;-8.540;2023-06-10T08:11:04;9.77;;;2.75;;
64186;SDS011;50491;39.484;-8.540;2023-06-10T08:13:29;13.80;;;3.35;;
64186;SDS011;50491;39.484;-8.540;2023-06-10T08:15:36;9.10;;;3.40;;
64186;SDS011;50491;39.484;-8.540;2023-06-10T08:17:37;9.57;;;3.33;;
64186;SDS011;50491;39.484;-8.540;2023-06-10T08:19:56;10.30;;;2.80;;
64186;SDS011;50491;39.484;-8.540;2023-06-10T08:22:16;9.30;;;3.65;;
64186;SDS011;50491;39.484;-8.540;2023-06-10T08:24:35;12.00;;;3.10;;
64186;SDS011;50491;39.484;-8.540;2023-06-10T08:26:55;4.90;;;2.42;;
64186;SDS011;50491;39.484;-8.540;2023-06-10T08:29:15;4.47;;;2.40;;
64186;SDS011;50491;39.484;-8.540;2023-06-10T08:31:16;6.63;;;2.50;;
64186;SDS011;50491;39.484;-8.540;2023-06-10T08:33:35;10.80;;;2.92;;
64186;SDS011;50491;39.484;-8.540;2023-06-10T08:35:54;10.75;;;2.47;;
64186;SDS011;50491;39.484;-8.540;2023-06-10T08:38:13;6.85;;;2.65;;
64186;SDS011;50491;39.484;-8.540;2023-06-10T08:40:14;7.63;;;2.70;;
64186;SDS011;50491;39.484;-8.540;2023-06-10T08:42:19;9.30;;;3.10;;
64186;SDS011;50491;39.484;-8.540;2023-06-10T08:44:28;11.13;;;2.35;;
64186;SDS011;50491;39.484;-8.540;2023-06-10T08:46:47;6.88;;;1.98;;
64186;SDS011;50491;39.484;-8.540;2023-06-10T08:48:49;7.68;;;2.03;;
64186;SDS011;50491;39.484;-8.540;2023-06-10T08:50:56;8.38;;;2.00;;
64186;SDS011;50491;39.484;-8.540;2023-06-10T08:52:58;4.68;;;1.70;;
64186;SDS011;50491;39.484;-8.540;2023-06-10T08:55:00;6.38;;;2.65;;
64186;SDS011;50491;39.484;-8.540;2023-06-10T08:57:04;5.00;;;2.38;;
64186;SDS011;50491;39.484;-8.540;2023-06-10T08:59:31;5.30;;;2.08;;
64186;SDS011;50491;39.484;-8.540;2023-06-10T09:01:32;5.28;;;1.85;;
64186;SDS011;50491;39.484;-8.540;2023-06-10T09:03:33;5.28;;;2.40;;
64186;SDS011;50491;39.484;-8.540;2023-06-10T09:05:35;6.55;;;1.98;;
64186;SDS011;50491;39.484;-8.540;2023-06-10T09:07:37;4.45;;;2.22;;
64186;SDS011;50491;39.484;-8.540;2023-06-10T09:09:57;12.13;;;2.92;;
64186;SDS011;50491;39.484;-8.540;2023-06-10T09:11:59;5.15;;;2.05;;
64186;SDS011;50491;39.484;-8.540;2023-06-10T09:14:18;6.50;;;2.53;;
64186;SDS011;50491;39.484;-8.540;2023-06-10T09:16:21;3.35;;;1.80;;
64186;SDS011;50491;39.484;-8.540;2023-06-10T09:18:46;5.90;;;1.80;;
64186;SDS011;50491;39.484;-8.540;2023-06-10T09:20:53;5.60;;;1.70;;
64186;SDS011;50491;39.484;-8.540;2023-06-10T09:22:53;9.40;;;1.75;;
64186;SDS011;50491;39.484;-8.540;2023-06-10T09:25:03;4.03;;;1.85;;
64186;SDS011;50491;39.484;-8.540;2023-06-10T09:27:06;6.70;;;1.85;;
64186;SDS011;50491;39.484;-8.540;2023-06-10T09:29:08;5.75;;;1.98;;
64186;SDS011;50491;39.484;-8.540;2023-06-10T09:31:11;3.05;;;1.58;;
64186;SDS011;50491;39.484;-8.540;2023-06-10T09:33:30;4.85;;;1.75;;
64186;SDS011;50491;39.484;-8.540;2023-06-10T09:35:50;5.43;;;1.83;;
64186;SDS011;50491;39.484;-8.540;2023-06-10T09:38:09;4.07;;;1.50;;
64186;SDS011;50491;39.484;-8.540;2023-06-10T09:40:11;6.97;;;1.77;;
64186;SDS011;50491;39.484;-8.540;2023-06-10T09:42:18;4.50;;;1.75;;
64186;SDS011;50491;39.484;-8.540;2023-06-10T09:44:19;5.57;;;1.90;;
64186;SDS011;50491;39.484;-8.540;2023-06-10T09:46:21;5.50;;;1.67;;
64186;SDS011;50491;39.484;-8.540;2023-06-10T09:48:43;9.35;;;1.77;;
64186;SDS011;50491;39.484;-8.540;2023-06-10T09:50:45;6.35;;;2.05;;
64186;SDS011;50491;39.484;-8.540;2023-06-10T09:52:46;6.53;;;1.80;;
64186;SDS011;50491;39.484;-8.540;2023-06-10T09:55:13;3.60;;;1.35;;
64186;SDS011;50491;39.484;-8.540;2023-06-10T09:57:14;4.70;;;1.27;;
64186;SDS011;50491;39.484;-8.540;2023-06-10T09:59:29;7.28;;;2.13;;
64186;SDS011;50491;39.484;-8.540;2023-06-10T10:03:52;3.95;;;1.48;;
64186;SDS011;50491;39.484;-8.540;2023-06-10T10:06:12;6.55;;;1.30;;
64186;SDS011;50491;39.484;-8.540;2023-06-10T10:10:51;3.88;;;1.23;;
64186;SDS011;50491;39.484;-8.540;2023-06-10T10:13:10;6.97;;;1.67;;
64186;SDS011;50491;39.484;-8.540;2023-06-10T10:15:11;6.13;;;1.40;;
64186;SDS011;50491;39.484;-8.540;2023-06-10T10:17:12;4.82;;;1.55;;
64186;SDS011;50491;39.484;-8.540;2023-06-10T10:21:52;3.85;;;1.17;;
64186;SDS011;50491;39.484;-8.540;2023-06-10T10:26:09;4.78;;;1.63;;
64186;SDS011;50491;39.484;-8.540;2023-06-10T10:28:29;5.63;;;1.60;;
64186;SDS011;50491;39.484;-8.540;2023-06-10T10:30:54;6.28;;;1.83;;
64186;SDS011;50491;39.484;-8.540;2023-06-10T10:33:00;4.60;;;1.80;;
64186;SDS011;50491;39.484;-8.540;2023-06-10T10:35:08;2.90;;;1.75;;
64186;SDS011;50491;39.484;-8.540;2023-06-10T10:37:11;2.33;;;1.10;;
64186;SDS011;50491;39.484;-8.540;2023-06-10T10:41:54;1.73;;;1.60;;
64186;SDS011;50491;39.484;-8.540;2023-06-10T10:43:56;5.38;;;1.38;;
64186;SDS011;50491;39.484;-8.540;2023-06-10T10:46:08;8.75;;;1.88;;
64186;SDS011;50491;39.484;-8.540;2023-06-10T10:48:35;6.60;;;1.38;;
64186;SDS011;50491;39.484;-8.540;2023-06-10T10:58:15;4.53;;;1.40;;
64186;SDS011;50491;39.484;-8.540;2023-06-10T11:00:25;3.67;;;1.05;;
64186;SDS011;50491;39.484;-8.540;2023-06-10T11:04:56;2.92;;;1.25;;
64186;SDS011;50491;39.484;-8.540;2023-06-10T11:06:58;4.85;;;1.05;;
64186;SDS011;50491;39.484;-8.540;2023-06-10T11:09:25;1.90;;;0.80;;
64186;SDS011;50491;39.484;-8.540;2023-06-10T11:11:50;3.08;;;1.00;;
64186;SDS011;50491;39.484;-8.540;2023-06-10T11:16:26;3.53;;;1.17;;
64186;SDS011;50491;39.484;-8.540;2023-06-10T11:18:30;3.80;;;1.13;;
64186;SDS011;50491;39.484;-8.540;2023-06-10T11:21:02;4.78;;;1.30;;
64186;SDS011;50491;39.484;-8.540;2023-06-10T11:23:04;5.95;;;1.23;;
64186;SDS011;50491;39.484;-8.540;2023-06-10T11:25:05;5.18;;;1.00;;
64186;SDS011;50491;39.484;-8.540;2023-06-10T11:27:15;6.15;;;1.33;;
64186;SDS011;50491;39.484;-8.540;2023-06-10T11:29:19;3.95;;;1.50;;
64186;SDS011;50491;39.484;-8.540;2023-06-10T11:31:40;4.70;;;1.10;;
64186;SDS011;50491;39.484;-8.540;2023-06-10T11:33:42;3.63;;;1.20;;
64186;SDS011;50491;39.484;-8.540;2023-06-10T11:35:43;2.40;;;0.85;;
64186;SDS011;50491;39.484;-8.540;2023-06-10T11:38:02;3.58;;;0.90;;
64186;SDS011;50491;39.484;-8.540;2023-06-10T11:40:02;2.90;;;1.23;;
64186;SDS011;50491;39.484;-8.540;2023-06-10T11:42:03;4.88;;;1.00;;
64186;SDS011;50491;39.484;-8.540;2023-06-10T11:44:25;7.53;;;1.52;;
64186;SDS011;50491;39.484;-8.540;2023-06-10T11:46:28;5.35;;;1.38;;
64186;SDS011;50491;39.484;-8.540;2023-06-10T11:48:28;4.88;;;1.25;;
64186;SDS011;50491;39.484;-8.540;2023-06-10T11:50:33;3.17;;;0.98;;
64186;SDS011;50491;39.484;-8.540;2023-06-10T11:52:34;3.90;;;1.38;;
64186;SDS011;50491;39.484;-8.540;2023-06-10T11:54:58;2.35;;;1.08;;
64186;SDS011;50491;39.484;-8.540;2023-06-10T11:59:17;4.57;;;1.30;;
64186;SDS011;50491;39.484;-8.540;2023-06-10T12:01:38;2.45;;;0.80;;
64186;SDS011;50491;39.484;-8.540;2023-06-10T12:10:01;2.63;;;0.90;;
64186;SDS011;50491;39.484;-8.540;2023-06-10T12:12:20;3.17;;;1.35;;
64186;SDS011;50491;39.484;-8.540;2023-06-10T12:17:18;4.05;;;1.48;;
64186;SDS011;50491;39.484;-8.540;2023-06-10T12:19:18;4.10;;;1.00;;
64186;SDS011;50491;39.484;-8.540;2023-06-10T12:21:56;5.05;;;1.17;;
64186;SDS011;50491;39.484;-8.540;2023-06-10T12:26:53;3.70;;;1.15;;
64186;SDS011;50491;39.484;-8.540;2023-06-10T12:29:00;8.57;;;1.60;;
64186;SDS011;50491;39.484;-8.540;2023-06-10T12:31:18;2.03;;;0.88;;
64186;SDS011;50491;39.484;-8.540;2023-06-10T12:33:38;2.45;;;0.90;;
64186;SDS011;50491;39.484;-8.540;2023-06-10T12:35:41;4.03;;;0.88;;
64186;SDS011;50491;39.484;-8.540;2023-06-10T12:40:46;3.53;;;1.02;;
64186;SDS011;50491;39.484;-8.540;2023-06-10T12:43:05;4.60;;;1.50;;
64186;SDS011;50491;39.484;-8.540;2023-06-10T12:45:06;2.42;;;0.80;;
64186;SDS011;50491;39.484;-8.540;2023-06-10T12:50:29;4.22;;;1.02;;
64186;SDS011;50491;39.484;-8.540;2023-06-10T12:55:08;1.30;;;0.90;;
64186;SDS011;50491;39.484;-8.540;2023-06-10T12:57:09;3.10;;;0.82;;
64186;SDS011;50491;39.484;-8.540;2023-06-10T12:59:29;3.28;;;1.20;;
64186;SDS011;50491;39.484;-8.540;2023-06-10T13:01:30;2.53;;;0.88;;
64186;SDS011;50491;39.484;-8.540;2023-06-10T13:03:49;2.90;;;1.20;;
64186;SDS011;50491;39.484;-8.540;2023-06-10T13:05:50;4.82;;;1.00;;
64186;SDS011;50491;39.484;-8.540;2023-06-10T13:08:09;6.07;;;1.30;;
64186;SDS011;50491;39.484;-8.540;2023-06-10T13:10:29;4.32;;;1.52;;
64186;SDS011;50491;39.484;-8.540;2023-06-10T13:12:48;1.88;;;0.70;;
64186;SDS011;50491;39.484;-8.540;2023-06-10T13:14:49;2.58;;;1.00;;
64186;SDS011;50491;39.484;-8.540;2023-06-10T13:16:50;4.53;;;0.93;;
64186;SDS011;50491;39.484;-8.540;2023-06-10T13:19:09;3.25;;;1.25;;
64186;SDS011;50491;39.484;-8.540;2023-06-10T13:21:28;4.40;;;1.00;;
64186;SDS011;50491;39.484;-8.540;2023-06-10T13:23:47;2.33;;;1.00;;
64186;SDS011;50491;39.484;-8.540;2023-06-10T13:42:05;1.85;;;0.90;;
64186;SDS011;50491;39.484;-8.540;2023-06-10T13:44:26;3.67;;;0.73;;
64186;SDS011;50491;39.484;-8.540;2023-06-10T13:46:45;4.60;;;1.30;;
64186;SDS011;50491;39.484;-8.540;2023-06-10T13:49:04;2.22;;;0.60;;
64186;SDS011;50491;39.484;-8.540;2023-06-10T13:53:24;4.25;;;1.05;;
64186;SDS011;50491;39.484;-8.540;2023-06-10T13:56:02;2.95;;;1.02;;
64186;SDS011;50491;39.484;-8.540;2023-06-10T13:58:02;1.85;;;0.73;;
64186;SDS011;50491;39.484;-8.540;2023-06-10T14:00:03;2.58;;;1.02;;
64186;SDS011;50491;39.484;-8.540;2023-06-10T14:02:05;1.38;;;0.70;;
64186;SDS011;50491;39.484;-8.540;2023-06-10T14:04:06;4.47;;;0.80;;
64186;SDS011;50491;39.484;-8.540;2023-06-10T14:06:07;1.15;;;0.73;;
64186;SDS011;50491;39.484;-8.540;2023-06-10T14:08:26;1.88;;;0.70;;
64186;SDS011;50491;39.484;-8.540;2023-06-10T14:10:34;6.55;;;1.02;;
64186;SDS011;50491;39.484;-8.540;2023-06-10T14:12:34;2.28;;;0.85;;
64186;SDS011;50491;39.484;-8.540;2023-06-10T14:14:35;2.25;;;0.80;;
64186;SDS011;50491;39.484;-8.540;2023-06-10T14:16:36;1.23;;;0.60;;
64186;SDS011;50491;39.484;-8.540;2023-06-10T14:18:37;6.15;;;1.08;;
64186;SDS011;50491;39.484;-8.540;2023-06-10T14:25:35;3.13;;;0.80;;
64186;SDS011;50491;39.484;-8.540;2023-06-10T14:27:35;2.72;;;1.05;;
64186;SDS011;50491;39.484;-8.540;2023-06-10T14:32:07;3.38;;;1.10;;
64186;SDS011;50491;39.484;-8.540;2023-06-10T14:34:27;3.10;;;1.17;;
64186;SDS011;50491;39.484;-8.540;2023-06-10T14:36:29;3.90;;;1.13;;
64186;SDS011;50491;39.484;-8.540;2023-06-10T14:38:35;5.97;;;1.27;;
64186;SDS011;50491;39.484;-8.540;2023-06-10T14:40:54;4.25;;;1.00;;
64186;SDS011;50491;39.484;-8.540;2023-06-10T14:43:13;4.30;;;1.30;;
64186;SDS011;50491;39.484;-8.540;2023-06-10T14:45:33;4.00;;;0.90;;
64186;SDS011;50491;39.484;-8.540;2023-06-10T14:47:35;1.98;;;0.93;;
64186;SDS011;50491;39.484;-8.540;2023-06-10T14:49:35;2.25;;;1.10;;
64186;SDS011;50491;39.484;-8.540;2023-06-10T14:51:36;2.63;;;1.00;;
64186;SDS011;50491;39.484;-8.540;2023-06-10T14:53:37;4.43;;;0.88;;
64186;SDS011;50491;39.484;-8.540;2023-06-10T14:55:38;4.53;;;1.33;;
64186;SDS011;50491;39.484;-8.540;2023-06-10T14:57:57;5.03;;;1.17;;
64186;SDS011;50491;39.484;-8.540;2023-06-10T15:00:17;5.38;;;1.15;;
64186;SDS011;50491;39.484;-8.540;2023-06-10T15:02:40;5.67;;;1.60;;
64186;SDS011;50491;39.484;-8.540;2023-06-10T15:04:59;5.53;;;1.52;;
64186;SDS011;50491;39.484;-8.540;2023-06-10T15:07:00;5.57;;;1.33;;
64186;SDS011;50491;39.484;-8.540;2023-06-10T15:09:00;6.40;;;1.15;;
64186;SDS011;50491;39.484;-8.540;2023-06-10T15:11:01;7.82;;;1.50;;
64186;SDS011;50491;39.484;-8.540;2023-06-10T15:13:02;6.32;;;1.83;;